Fort Smith, AR

12:20 AM CDT on May 01, 2017 (GMT -0500)
Riley Farms | | Change Station
Active Advisory: Flood Warning

Elev 584 ft 35.28 °N, 94.37 °W | Updated 28 seconds ago

Overcast
Overcast
50.5 °F
Feels Like 50.5 °F
N
2.0
Wind Variable Wind from South
Gusts 8.0 mph

Today
High -- | Low -- °F
--% Chance of Precip.
Yesterday
High -- | Low -- °F
Precip. -- in
Pressure 29.70 in
Visibility 10.0 miles
Clouds Overcast 4600 ft
Dew Point 38 °F
Humidity 62%
Rainfall 0.00 in
Snow Depth Not available.
6:25 AM 8:03 PM
Waxing Crescent, 29% visible
METAR KFSM 010453Z AUTO 25020G28KT 10SM OVC046 11/01 A2970 RMK AO2 PK WND 25028/0443 SLP056 T01110011
Pressure 29.70 in
Visibility 10.0 miles
Clouds Overcast 4600 ft
Dew Point 38 °F
Humidity 62%
Rainfall 0.00 in
Snow Depth Not available.
6:25 AM 8:03 PM
Waxing Crescent, 29% visible
METAR KFSM 010453Z AUTO 25020G28KT 10SM OVC046 11/01 A2970 RMK AO2 PK WND 25028/0443 SLP056 T01110011

Get Your Daily Forecast Email!

Thanks for signing up!

Be on the lookout for a verification email in your inbox.

You'll start receiving severe weather alerts in your inbox..

×

10-Day Weather Forecast

Almanac

Astronomy

May. 01, 2017 Rise Set
Actual Time
Civil Twilight
Nautical Twilight
Astronomical Twilight
Moon
Length of Visible Light
Length of Day
Tomorrow will be .
, % of the Moon is Illuminated

Today's Extremes

State Highs State Lows

Community

WunderPhotos

WunderBlog® & News

Nearby

Air Quality

  Air Quality AQ Index Pollutant
Not available.

Snow Depth

Station Depth Elevation

Earthquake Activity

City Distance Mag. Time & Date
Minimum magnitude displayed is 2.5.

Coastal Water Temperatures

Place Temperature

Stations

Nearby Weather Stations

Station Location Temp. Windchill Dew Point Humidity Wind Precip. Elev Updated Type
                   

Watches & Warnings

Flood Warning
Issued: 8:13 PM CDT Apr. 30, 2017 – National Weather Service

The Flood Warning continues for
the Arkansas River at Van Buren.
* Until Tuesday evening, or until the warning is cancelled.
* At 8:00 PM Sunday, the stage was 24.14 feet.
* Flood stage is 22.0 feet.
* Minor flooding is occurring but the river is falling.
* Forecast... the Arkansas River at Van Buren will continue falling to
below flood stage by early Tuesday afternoon.
* Impact... at 24.0 feet, minor lowland flooding occurs along the
shoreline from the I-540 bridge east towards Lavaca. Some rural
roads near Lavaca may be impassable. Parts of Kelley Park northwest
of downtown Fort Smith experience minor flooding.


Lat... Lon 3549 9439 3539 9422 3531 9422 3531 9454 3540 9454